Time;durP1;ratioP1;P1;durP2;ratioP2;P2;SDS_P1;SDS_P2;PMS_P1;PMS_P2;Temp;Humidity;BMP_temperature;BMP_pressure;BME280_temperature;BME280_humidity;BME280_pressure;Samples;Min_cycle;Max_cycle;Signal;HPM_P1;HPM_P2
2023/01/16 00:01:25;;;;;;;11.00;7.00;;;;;;;4.16;84.66;98954.31;103059;1259;97848;-81
2023/01/16 00:03:52;;;;;;;9.60;5.90;;;;;;;4.16;84.85;98949.33;102824;1258;137138;-80
2023/01/16 00:06:20;;;;;;;8.20;5.60;;;;;;;4.16;84.90;98949.86;102952;1259;98561;-80
2023/01/16 00:08:48;;;;;;;10.10;6.00;;;;;;;4.14;84.85;98949.89;102262;1259;1003088;-80
2023/01/16 00:11:16;;;;;;;9.50;6.20;;;;;;;4.15;84.80;98949.20;102145;1262;1003031;-80
2023/01/16 00:13:43;;;;;;;10.40;6.20;;;;;;;4.14;84.67;98945.09;102898;1259;98176;-79
2023/01/16 00:16:11;;;;;;;9.10;6.20;;;;;;;4.14;84.87;98943.03;102997;1259;138688;-80
2023/01/16 00:18:39;;;;;;;9.80;6.00;;;;;;;4.12;84.66;98944.95;103055;1259;97823;-81
2023/01/16 00:21:06;;;;;;;8.70;6.10;;;;;;;4.11;84.60;98947.05;102958;1259;110757;-80
2023/01/16 00:23:33;;;;;;;8.90;6.20;;;;;;;4.09;84.65;98947.63;103123;1254;138973;-79
2023/01/16 00:26:04;;;;;;;8.50;6.10;;;;;;;4.07;84.71;98952.15;103449;1253;97919;-80
2023/01/16 00:28:32;;;;;;;10.10;6.10;;;;;;;4.06;84.69;98953.91;103347;1253;137969;-81
2023/01/16 00:30:59;;;;;;;9.90;6.10;;;;;;;4.03;84.80;98952.94;103468;1253;98220;-81
2023/01/16 00:33:26;;;;;;;10.50;6.40;;;;;;;4.01;84.62;98950.44;103328;1259;138072;-81
2023/01/16 00:35:53;;;;;;;8.30;5.50;;;;;;;3.99;84.86;98955.83;103441;1253;107861;-81
2023/01/16 00:38:21;;;;;;;8.30;5.20;;;;;;;3.96;84.75;98958.29;103462;1256;97765;-81
2023/01/16 00:40:50;;;;;;;8.40;5.10;;;;;;;3.94;84.95;98962.45;103337;1253;138636;-81
2023/01/16 00:43:17;;;;;;;9.00;5.40;;;;;;;3.91;84.75;98962.35;102688;1257;1003680;-80
2023/01/16 00:45:44;;;;;;;9.20;5.50;;;;;;;3.88;84.79;98965.05;103304;1253;138364;-80
2023/01/16 00:48:13;;;;;;;10.10;6.20;;;;;;;3.85;84.82;98966.48;103351;1254;1002985;-80
2023/01/16 00:50:40;;;;;;;10.10;5.10;;;;;;;3.83;85.04;98965.68;103503;1256;97763;-80
2023/01/16 00:53:07;;;;;;;7.90;5.00;;;;;;;3.78;85.13;98965.63;103338;1253;138155;-80
2023/01/16 00:55:36;;;;;;;8.90;5.50;;;;;;;3.77;85.15;98966.86;103442;1256;98018;-80
2023/01/16 00:58:04;;;;;;;9.90;5.50;;;;;;;3.75;85.31;98962.77;103390;1254;137986;-80
2023/01/16 01:00:32;;;;;;;8.50;6.10;;;;;;;3.73;85.37;98962.64;103486;1253;106569;-80
2023/01/16 01:03:00;;;;;;;8.60;5.80;;;;;;;3.71;85.73;98965.30;103538;1256;98342;-80
2023/01/16 01:05:27;;;;;;;8.70;5.60;;;;;;;3.68;85.73;98968.80;103418;1253;137739;-80
2023/01/16 01:07:55;;;;;;;8.30;5.90;;;;;;;3.65;86.03;98971.63;103464;1257;97887;-80
2023/01/16 01:10:22;;;;;;;10.70;5.80;;;;;;;3.63;86.16;98966.52;103405;1257;138261;-80
2023/01/16 01:12:49;;;;;;;9.60;6.00;;;;;;;3.61;86.18;98968.11;103383;1253;108514;-79
2023/01/16 01:15:16;;;;;;;9.60;5.60;;;;;;;3.58;86.18;98967.82;103298;1257;139633;-79
2023/01/16 01:17:44;;;;;;;9.10;5.70;;;;;;;3.55;86.36;98974.08;104204;1257;108000;-80
2023/01/16 01:20:13;;;;;;;8.00;5.40;;;;;;;3.52;86.39;98964.38;103410;1254;99334;-80
2023/01/16 01:22:40;;;;;;;9.40;6.30;;;;;;;3.50;86.37;98964.93;103487;1253;137951;-81
2023/01/16 01:25:08;;;;;;;9.50;6.10;;;;;;;3.49;86.48;98962.56;103426;1253;108105;-82
2023/01/16 01:27:36;;;;;;;10.90;5.80;;;;;;;3.47;86.58;98959.86;103768;1254;138257;-81
2023/01/16 01:30:03;;;;;;;10.40;5.90;;;;;;;3.45;86.44;98962.65;103433;1258;107706;-80
2023/01/16 01:32:30;;;;;;;8.50;5.90;;;;;;;3.45;86.36;98963.02;103460;1255;97837;-79
2023/01/16 01:34:58;;;;;;;10.00;6.30;;;;;;;3.43;86.43;98959.95;103352;1253;138236;-81
2023/01/16 01:37:25;;;;;;;10.00;5.80;;;;;;;3.42;86.64;98960.85;103337;1253;108177;-80
2023/01/16 01:39:53;;;;;;;7.80;6.30;;;;;;;3.40;86.50;98957.09;103339;1256;138292;-82
2023/01/16 01:45:12;;;;;;;10.20;5.70;;;;;;;3.36;86.38;98952.71;103464;1256;97779;-80
2023/01/16 01:47:43;;;;;;;9.10;6.00;;;;;;;3.34;86.66;98953.64;103361;1254;111863;-81
2023/01/16 01:50:21;;;;;;;10.60;5.80;;;;;;;3.32;86.60;98950.41;103491;1257;106702;-81
2023/01/16 01:52:49;;;;;;;10.10;6.00;;;;;;;3.30;86.38;98950.30;103376;1253;138131;-80
2023/01/16 01:55:19;;;;;;;8.90;6.20;;;;;;;3.28;86.51;98948.79;103389;1257;107340;-82
2023/01/16 01:57:49;;;;;;;10.60;6.40;;;;;;;3.27;86.54;98947.11;103309;1257;138216;-80
2023/01/16 02:00:20;;;;;;;9.20;6.30;;;;;;;3.24;86.62;98942.38;103439;1254;112374;-80
2023/01/16 02:02:52;;;;;;;10.10;6.40;;;;;;;3.21;86.73;98945.17;104073;1253;107956;-80
2023/01/16 02:05:25;;;;;;;10.80;6.40;;;;;;;3.18;86.53;98941.98;103392;1253;141909;-80
2023/01/16 02:07:54;;;;;;;10.20;6.50;;;;;;;3.15;86.83;98943.61;103587;1253;107402;-80
2023/01/16 02:10:28;;;;;;;13.80;6.50;;;;;;;3.11;86.89;98941.80;103205;1257;138545;-80
2023/01/16 02:12:56;;;;;;;9.90;7.00;;;;;;;3.07;86.88;98941.40;103384;1257;110823;-80
2023/01/16 02:15:24;;;;;;;12.90;6.90;;;;;;;3.04;86.96;98943.49;103182;1257;138416;-79
2023/01/16 02:20:46;;;;;;;13.00;7.40;;;;;;;2.99;87.22;98940.86;103196;1257;315465;-79
2023/01/16 02:23:48;;;;;;;10.80;7.10;;;;;;;2.96;87.13;98939.73;102596;1253;1003769;-79
2023/01/16 02:26:52;;;;;;;10.60;6.90;;;;;;;2.91;87.16;98934.36;103379;1257;111957;-79
2023/01/16 02:29:43;;;;;;;11.60;7.20;;;;;;;2.87;87.39;98931.20;103531;1254;138248;-79
2023/01/16 02:32:23;;;;;;;11.60;7.00;;;;;;;2.82;87.37;98929.73;103628;1254;97911;-80
2023/01/16 02:35:07;;;;;;;11.70;7.60;;;;;;;2.78;87.34;98931.21;103290;1254;138148;-82
2023/01/16 02:37:44;;;;;;;11.80;7.40;;;;;;;2.74;87.67;98929.25;102811;1253;1003255;-82
2023/01/16 02:40:23;;;;;;;11.60;7.80;;;;;;;2.71;87.64;98931.88;102561;1256;1003475;-80
2023/01/16 02:42:59;;;;;;;11.50;7.80;;;;;;;2.67;87.65;98931.09;103380;1259;108040;-80
2023/01/16 02:45:36;;;;;;;11.10;8.40;;;;;;;2.63;87.77;98930.66;103361;1256;138620;-80
2023/01/16 02:48:12;;;;;;;14.40;7.80;;;;;;;2.58;88.05;98931.13;103382;1257;108492;-81
2023/01/16 02:50:48;;;;;;;13.90;8.40;;;;;;;2.53;88.35;98927.64;103397;1256;97829;-81
2023/01/16 02:53:22;;;;;;;12.90;8.60;;;;;;;2.46;88.75;98925.02;103342;1254;138193;-81
2023/01/16 02:55:53;;;;;;;11.20;7.80;;;;;;;2.40;88.99;98927.38;103404;1257;110771;-81
2023/01/16 02:58:22;;;;;;;14.30;9.10;;;;;;;2.34;89.38;98927.67;103715;1257;138239;-81
2023/01/16 03:00:55;;;;;;;11.70;8.40;;;;;;;2.29;89.82;98928.61;103535;1253;108071;-79
2023/01/16 03:03:37;;;;;;;10.80;8.40;;;;;;;2.24;90.06;98926.34;102752;1254;1002849;-81
2023/01/16 03:06:17;;;;;;;13.30;8.50;;;;;;;2.19;90.23;98928.49;102763;1257;1002605;-81
2023/01/16 03:08:53;;;;;;;14.80;8.80;;;;;;;2.16;90.14;98924.77;104049;1256;108416;-80
2023/01/16 03:11:23;;;;;;;14.50;8.80;;;;;;;2.13;90.34;98926.54;103307;1257;138182;-79
2023/01/16 03:14:01;;;;;;;14.30;8.90;;;;;;;2.10;90.53;98929.50;102616;1255;1003619;-79
2023/01/16 03:16:35;;;;;;;13.60;8.60;;;;;;;2.07;90.89;98927.35;103292;1254;138593;-80
2023/01/16 03:19:20;;;;;;;14.10;9.30;;;;;;;2.05;91.15;98930.48;103425;1256;113079;-80
2023/01/16 03:22:03;;;;;;;13.20;9.00;;;;;;;2.03;91.21;98931.71;103266;1256;138356;-80
2023/01/16 03:24:39;;;;;;;12.40;8.20;;;;;;;2.01;91.18;98927.98;103592;1253;97794;-80
2023/01/16 03:27:13;;;;;;;14.80;9.60;;;;;;;1.98;91.10;98925.80;103586;1256;105712;-80
2023/01/16 03:29:46;;;;;;;13.20;9.70;;;;;;;1.97;91.21;98925.63;103424;1254;97931;-80
2023/01/16 03:32:27;;;;;;;12.30;8.80;;;;;;;1.95;91.46;98934.41;103551;1254;111494;-80
2023/01/16 03:35:00;;;;;;;13.50;8.90;;;;;;;1.92;91.74;98932.92;103370;1254;138236;-80
2023/01/16 03:37:32;;;;;;;14.60;8.60;;;;;;;1.92;91.35;98934.66;103361;1257;98466;-80
2023/01/16 03:40:03;;;;;;;13.70;9.50;;;;;;;1.89;91.71;98933.67;103238;1253;137963;-80
2023/01/16 03:42:37;;;;;;;14.70;9.50;;;;;;;1.88;91.81;98932.68;103551;1253;97864;-80
2023/01/16 03:45:10;;;;;;;16.30;9.80;;;;;;;1.87;91.96;98936.81;102735;1257;1002933;-80
2023/01/16 03:47:43;;;;;;;14.40;9.30;;;;;;;1.85;92.07;98936.85;103670;1257;107746;-80
2023/01/16 03:50:14;;;;;;;16.00;9.80;;;;;;;1.83;91.85;98936.02;103226;1261;97796;-80
2023/01/16 03:52:46;;;;;;;17.50;9.30;;;;;;;1.83;91.73;98932.61;103536;1254;138379;-80
2023/01/16 03:55:20;;;;;;;18.40;9.80;;;;;;;1.83;91.94;98932.78;103387;1255;97695;-79
2023/01/16 03:57:51;;;;;;;15.60;9.50;;;;;;;1.82;91.95;98931.58;103383;1256;138312;-80
2023/01/16 04:00:21;;;;;;;16.60;10.30;;;;;;;1.80;92.06;98922.19;103735;1255;107208;-80
2023/01/16 04:02:54;;;;;;;15.20;9.20;;;;;;;1.81;92.27;98927.99;104092;1254;97608;-79
2023/01/16 04:05:26;;;;;;;14.90;8.90;;;;;;;1.85;91.97;98927.77;103737;1257;138202;-80
2023/01/16 04:07:59;;;;;;;13.00;8.60;;;;;;;1.88;92.08;98931.64;103573;1254;97838;-80
2023/01/16 04:10:30;;;;;;;12.50;8.20;;;;;;;1.92;91.78;98928.46;103580;1257;138117;-81
2023/01/16 04:13:01;;;;;;;12.50;7.20;;;;;;;1.97;91.75;98925.81;103381;1254;107596;-80
2023/01/16 04:15:32;;;;;;;11.90;7.00;;;;;;;2.01;91.47;98929.52;103494;1257;139238;-79
2023/01/16 04:18:00;;;;;;;10.70;7.00;;;;;;;2.05;91.38;98932.70;103406;1254;107574;-79
2023/01/16 04:20:28;;;;;;;10.40;7.40;;;;;;;2.08;91.27;98928.34;103404;1254;97870;-79
2023/01/16 04:22:55;;;;;;;12.60;7.20;;;;;;;2.10;90.84;98928.14;103276;1257;138070;-79
2023/01/16 04:25:24;;;;;;;11.90;6.90;;;;;;;2.11;91.02;98924.86;103398;1257;107328;-79
2023/01/16 04:27:51;;;;;;;11.80;7.20;;;;;;;2.13;90.91;98929.43;103232;1257;138716;-78
2023/01/16 04:30:19;;;;;;;13.20;7.00;;;;;;;2.14;90.65;98926.33;103395;1257;107920;-79
2023/01/16 04:32:46;;;;;;;11.90;7.20;;;;;;;2.15;90.66;98923.58;102826;1258;1002413;-79
2023/01/16 04:35:14;;;;;;;12.70;6.90;;;;;;;2.16;90.46;98922.73;103322;1253;138526;-78
2023/01/16 04:37:41;;;;;;;10.50;6.80;;;;;;;2.15;90.48;98927.69;103468;1253;107330;-78
2023/01/16 04:40:10;;;;;;;10.90;7.30;;;;;;;2.16;90.34;98931.30;103593;1254;139975;-79
2023/01/16 04:42:37;;;;;;;13.00;6.90;;;;;;;2.16;90.28;98935.77;103495;1257;107200;-79
2023/01/16 04:45:06;;;;;;;7.60;6.10;;;;;;;2.13;90.25;98933.89;103412;1255;97665;-80
2023/01/16 04:47:33;;;;;;;9.00;6.80;;;;;;;2.13;90.24;98940.77;103485;1254;137512;-79
2023/01/16 04:50:00;;;;;;;12.30;7.70;;;;;;;2.12;90.14;98938.02;103409;1254;107517;-79
2023/01/16 04:52:27;;;;;;;9.70;7.00;;;;;;;2.11;90.26;98951.09;103593;1256;137844;-78
2023/01/16 04:54:54;;;;;;;12.80;7.40;;;;;;;2.06;90.22;98947.08;103387;1255;107028;-79
2023/01/16 04:57:22;;;;;;;10.30;7.70;;;;;;;2.02;90.22;98943.91;102605;1257;1005093;-78
2023/01/16 04:59:49;;;;;;;10.20;7.30;;;;;;;2.00;90.34;98950.45;103439;1254;111028;-78
2023/01/16 05:02:16;;;;;;;10.70;7.20;;;;;;;1.96;90.14;98942.80;103400;1254;108247;-78
2023/01/16 05:04:44;;;;;;;11.70;7.40;;;;;;;1.94;90.23;98946.26;103298;1257;138247;-78
2023/01/16 05:07:11;;;;;;;11.80;6.90;;;;;;;1.91;90.30;98941.19;103353;1254;108332;-78
2023/01/16 05:09:38;;;;;;;13.30;7.70;;;;;;;1.89;90.15;98945.50;103260;1254;139438;-78
2023/01/16 05:12:06;;;;;;;10.20;7.20;;;;;;;1.86;90.16;98936.82;103351;1254;111044;-77
2023/01/16 05:14:33;;;;;;;9.80;6.50;;;;;;;1.87;89.91;98943.99;103519;1257;109146;-78
2023/01/16 05:17:00;;;;;;;11.10;6.90;;;;;;;1.87;89.96;98937.82;103296;1254;139450;-78
2023/01/16 05:19:27;;;;;;;8.70;6.00;;;;;;;1.88;89.93;98939.70;103367;1254;108551;-78
2023/01/16 05:21:55;;;;;;;12.00;6.90;;;;;;;1.89;89.85;98935.20;103279;1257;138977;-78
2023/01/16 05:24:22;;;;;;;11.30;6.40;;;;;;;1.92;89.78;98932.06;103377;1254;112080;-76
2023/01/16 05:26:49;;;;;;;9.40;6.40;;;;;;;1.94;89.60;98927.92;103606;1253;106932;-78
2023/01/16 05:29:17;;;;;;;11.50;6.70;;;;;;;1.95;89.43;98921.39;103956;1256;141373;-78
2023/01/16 05:31:44;;;;;;;10.70;6.50;;;;;;;1.94;89.39;98921.58;103576;1257;107336;-78
2023/01/16 05:34:12;;;;;;;8.40;6.00;;;;;;;1.95;89.33;98924.64;103257;1255;138139;-77
2023/01/16 05:36:39;;;;;;;9.60;6.10;;;;;;;1.97;89.29;98926.15;103426;1254;111805;-78
2023/01/16 05:39:06;;;;;;;11.60;6.10;;;;;;;1.97;89.13;98923.23;104226;1254;106770;-78
2023/01/16 05:41:33;;;;;;;9.90;6.50;;;;;;;1.96;88.90;98919.83;103626;1253;137741;-78
2023/01/16 05:44:00;;;;;;;9.00;6.30;;;;;;;1.93;88.83;98923.30;103357;1253;108600;-78
2023/01/16 05:46:29;;;;;;;12.50;7.70;;;;;;;1.91;88.77;98926.10;103802;1254;137460;-78
2023/01/16 05:48:56;;;;;;;11.90;6.60;;;;;;;1.86;88.91;98923.62;102755;1253;1003805;-78
2023/01/16 05:51:23;;;;;;;10.90;6.50;;;;;;;1.83;88.78;98922.15;102461;1254;1003638;-75
2023/01/16 05:53:52;;;;;;;10.30;6.00;;;;;;;1.79;88.73;98922.20;104095;1254;97691;-78
2023/01/16 05:56:22;;;;;;;8.00;5.50;;;;;;;1.77;88.79;98918.96;103605;1254;108017;-76
2023/01/16 05:58:50;;;;;;;8.10;5.80;;;;;;;1.77;88.84;98921.71;103367;1253;138130;-78
2023/01/16 06:01:17;;;;;;;9.60;5.80;;;;;;;1.76;88.83;98917.77;103709;1254;112247;-78
2023/01/16 06:03:44;;;;;;;9.40;5.90;;;;;;;1.78;88.68;98915.52;103560;1254;137861;-77
2023/01/16 06:06:12;;;;;;;8.50;6.00;;;;;;;1.78;88.63;98906.09;103697;1253;97794;-77
2023/01/16 06:08:41;;;;;;;9.30;5.80;;;;;;;1.79;88.61;98900.60;103036;1254;1003503;-77
2023/01/16 06:11:09;;;;;;;9.20;6.40;;;;;;;1.77;88.45;98901.31;103292;1254;137681;-76
2023/01/16 06:13:36;;;;;;;8.50;6.20;;;;;;;1.73;88.32;98900.70;103336;1254;111117;-76
2023/01/16 06:16:03;;;;;;;9.40;6.10;;;;;;;1.70;88.27;98899.75;103628;1254;138205;-77
2023/01/16 06:18:30;;;;;;;12.20;6.60;;;;;;;1.65;88.41;98900.86;103666;1257;98341;-76
2023/01/16 06:20:57;;;;;;;11.30;6.40;;;;;;;1.64;88.32;98901.91;104004;1254;109336;-76
2023/01/16 06:23:24;;;;;;;9.80;6.30;;;;;;;1.62;88.31;98904.69;103538;1257;138282;-74
2023/01/16 06:25:52;;;;;;;10.00;6.10;;;;;;;1.60;88.40;98911.05;103845;1254;111175;-77
2023/01/16 06:28:20;;;;;;;10.80;6.60;;;;;;;1.58;88.36;98909.02;103335;1254;138246;-77
2023/01/16 06:30:50;;;;;;;12.10;6.90;;;;;;;1.59;88.53;98907.98;103519;1253;99460;-77
2023/01/16 06:33:18;;;;;;;10.60;6.40;;;;;;;1.60;88.50;98911.91;103253;1254;138237;-76
2023/01/16 06:35:45;;;;;;;9.20;6.00;;;;;;;1.59;88.57;98912.95;103510;1254;97898;-77
2023/01/16 06:38:12;;;;;;;11.80;6.50;;;;;;;1.57;88.56;98905.95;103550;1254;111721;-77
2023/01/16 06:40:39;;;;;;;11.90;6.40;;;;;;;1.58;88.56;98906.29;103247;1254;138437;-83
2023/01/16 06:43:07;;;;;;;9.50;6.30;;;;;;;1.59;88.57;98907.64;103820;1254;98482;-81
2023/01/16 06:45:34;;;;;;;12.00;6.40;;;;;;;1.60;88.47;98908.46;103384;1254;138833;-75
2023/01/16 06:48:01;;;;;;;11.50;6.30;;;;;;;1.62;88.33;98907.09;103408;1254;97890;-74
2023/01/16 06:50:28;;;;;;;11.60;6.20;;;;;;;1.66;88.40;98909.93;104210;1256;115293;-84
2023/01/16 06:52:55;;;;;;;9.90;5.70;;;;;;;1.69;88.23;98912.27;103835;1254;137903;-82
2023/01/16 06:55:23;;;;;;;10.20;6.40;;;;;;;1.71;88.19;98911.05;104071;1254;97721;-89
2023/01/16 06:57:50;;;;;;;9.20;6.10;;;;;;;1.72;88.08;98911.52;104437;1254;137474;-78
2023/01/16 07:00:19;;;;;;;9.10;5.80;;;;;;;1.72;87.97;98914.94;103521;1254;97807;-80
2023/01/16 07:02:54;;;;;;;9.80;5.70;;;;;;;1.72;87.83;98912.39;104738;1254;112423;-78
2023/01/16 07:05:21;;;;;;;10.10;5.70;;;;;;;1.70;87.78;98908.64;103483;1253;138582;-83
2023/01/16 07:07:49;;;;;;;10.90;6.40;;;;;;;1.71;87.69;98910.52;103425;1253;98524;-85
2023/01/16 07:10:20;;;;;;;8.30;5.60;;;;;;;1.72;87.73;98909.64;103421;1254;136995;-82
2023/01/16 07:12:47;;;;;;;9.10;5.80;;;;;;;1.76;87.89;98904.59;103686;1257;97817;-77
2023/01/16 07:23:39;;;;;;;9.80;6.50;;;;;;;2.36;87.09;98907.39;103299;1257;109816;-80
2023/01/16 07:26:08;;;;;;;8.90;5.50;;;;;;;2.47;86.64;98900.80;104707;1253;95971;-90
2023/01/16 07:28:36;;;;;;;8.10;5.70;;;;;;;2.55;86.13;98894.47;104623;1253;138350;-83
2023/01/16 07:31:05;;;;;;;10.30;6.70;;;;;;;2.60;85.63;98894.02;103526;1253;107836;-80
2023/01/16 07:33:32;;;;;;;9.30;5.90;;;;;;;2.66;85.46;98895.92;104327;1253;138469;-74
2023/01/16 07:36:00;;;;;;;9.40;5.90;;;;;;;2.73;85.29;98900.09;103041;1257;107206;-81
2023/01/16 07:38:27;;;;;;;11.90;6.20;;;;;;;2.78;84.84;98899.47;103320;1257;97824;-78
2023/01/16 07:40:54;;;;;;;9.90;5.40;;;;;;;2.79;84.35;98900.29;103189;1253;138174;-78
2023/01/16 07:43:21;;;;;;;9.90;6.10;;;;;;;2.81;84.36;98898.19;103957;1254;107112;-77
2023/01/16 07:45:52;;;;;;;9.70;5.60;;;;;;;2.87;84.06;98896.86;103035;1253;138654;-76
2023/01/16 07:48:20;;;;;;;12.90;6.00;;;;;;;2.99;83.87;98895.02;103642;1254;105693;-77
2023/01/16 07:50:54;;;;;;;9.30;5.80;;;;;;;3.10;83.49;98889.98;103133;1254;97799;-77
2023/01/16 07:53:23;;;;;;;11.30;6.30;;;;;;;3.16;82.95;98893.59;103229;1253;138360;-77
2023/01/16 07:55:52;;;;;;;9.00;5.90;;;;;;;3.17;82.95;98891.85;103310;1253;106841;-76
2023/01/16 07:58:20;;;;;;;12.10;5.90;;;;;;;3.19;82.56;98894.57;103618;1253;139868;-77
2023/01/16 08:00:48;;;;;;;9.80;5.70;;;;;;;3.26;82.57;98887.70;104249;1253;106870;-77
2023/01/16 08:03:16;;;;;;;13.10;6.20;;;;;;;3.39;82.28;98885.14;103370;1254;97774;-74
2023/01/16 08:05:44;;;;;;;8.50;5.40;;;;;;;3.51;81.83;98885.88;103222;1254;112121;-78
2023/01/16 08:08:12;;;;;;;12.60;6.10;;;;;;;3.60;81.58;98877.55;103353;1254;106855;-76
2023/01/16 08:10:40;;;;;;;11.30;6.30;;;;;;;3.72;81.28;98882.06;103705;1253;138386;-77
2023/01/16 08:13:07;;;;;;;10.90;5.60;;;;;;;3.76;80.93;98879.02;103323;1255;107740;-76
2023/01/16 08:15:35;;;;;;;9.80;6.00;;;;;;;3.80;81.26;98875.66;103387;1253;140204;-79
2023/01/16 08:18:02;;;;;;;10.30;5.60;;;;;;;3.82;80.46;98872.35;104284;1252;111277;-80
2023/01/16 08:20:30;;;;;;;14.70;5.70;;;;;;;3.84;80.24;98872.27;103211;1254;108266;-75
2023/01/16 08:22:58;;;;;;;11.10;5.80;;;;;;;3.84;80.16;98875.21;104118;1253;137697;-78
2023/01/16 08:25:26;;;;;;;9.40;5.00;;;;;;;3.85;80.13;98876.05;103446;1254;109358;-79
2023/01/16 08:27:53;;;;;;;10.20;5.80;;;;;;;3.80;79.46;98876.71;103304;1257;137061;-76
2023/01/16 08:30:22;;;;;;;9.00;5.70;;;;;;;3.76;79.75;98878.17;102613;1254;1003023;-85
2023/01/16 08:32:49;;;;;;;10.40;5.80;;;;;;;3.68;79.36;98875.11;103265;1254;107292;-84
2023/01/16 08:35:16;;;;;;;10.10;5.70;;;;;;;3.62;79.51;98873.05;103266;1253;139290;-87
2023/01/16 08:37:50;;;;;;;11.80;5.70;;;;;;;3.58;79.71;98868.32;103249;1257;106732;-83
2023/01/16 08:40:18;;;;;;;8.40;5.20;;;;;;;3.59;79.98;98872.25;103125;1254;139243;-87
2023/01/16 08:51:24;;;;;;;10.10;5.70;;;;;;;3.70;79.71;98872.48;103194;1254;107834;-81
2023/01/16 08:53:53;;;;;;;12.20;6.80;;;;;;;3.75;79.56;98867.20;103432;1253;97778;-81
2023/01/16 08:56:20;;;;;;;11.50;5.80;;;;;;;3.80;79.45;98864.83;103025;1257;1003616;-81
2023/01/16 08:58:48;;;;;;;9.70;5.70;;;;;;;3.86;79.29;98862.59;103131;1253;139283;-80
2023/01/16 09:01:16;;;;;;;11.50;6.70;;;;;;;3.91;79.16;98859.02;103296;1254;97835;-83
2023/01/16 09:03:45;;;;;;;14.00;6.20;;;;;;;3.94;78.68;98853.27;103224;1253;138579;-82
2023/01/16 09:06:13;;;;;;;10.40;6.60;;;;;;;3.99;78.80;98848.50;103186;1257;97809;-82
2023/01/16 09:08:40;;;;;;;10.80;6.10;;;;;;;4.04;78.32;98849.02;103237;1257;111230;-84
2023/01/16 09:13:52;;;;;;;9.60;6.20;;;;;;;4.18;78.24;98846.05;102647;1257;1002853;-83
2023/01/16 09:16:21;;;;;;;11.30;6.40;;;;;;;4.22;78.12;98836.14;103292;1253;138137;-85
2023/01/16 09:18:49;;;;;;;8.80;6.30;;;;;;;4.25;77.53;98833.80;103669;1253;97899;-84
2023/01/16 09:21:18;;;;;;;11.60;6.80;;;;;;;4.27;77.68;98832.36;103351;1254;111950;-82
2023/01/16 09:23:45;;;;;;;11.20;6.80;;;;;;;4.30;77.25;98829.19;103293;1253;106627;-78
2023/01/16 09:26:13;;;;;;;11.00;6.90;;;;;;;4.31;77.20;98831.75;103311;1254;97976;-76
2023/01/16 09:28:40;;;;;;;10.50;6.70;;;;;;;4.31;77.37;98829.85;102981;1254;138049;-78
2023/01/16 09:31:08;;;;;;;12.30;6.60;;;;;;;4.31;77.50;98824.86;103490;1254;98363;-84
2023/01/16 09:33:36;;;;;;;15.00;7.10;;;;;;;4.30;77.57;98816.64;103040;1254;138135;-85
2023/01/16 09:36:04;;;;;;;10.90;6.80;;;;;;;4.31;77.52;98818.33;103283;1253;107257;-85
2023/01/16 09:38:31;;;;;;;11.20;7.30;;;;;;;4.33;77.52;98816.73;103371;1253;98015;-85
2023/01/16 09:41:01;;;;;;;12.50;6.80;;;;;;;4.35;76.92;98818.91;103233;1253;138201;-81
2023/01/16 09:43:37;;;;;;;12.20;7.50;;;;;;;4.36;76.90;98815.77;103339;1254;97823;-81
2023/01/16 09:46:05;;;;;;;;;;;;;;;4.36;76.38;98812.86;103245;1254;138039;-87
2023/01/16 09:48:32;;;;;;;;;;;;;;;4.35;76.51;98812.89;103376;1257;106960;-91
2023/01/16 09:51:03;;;;;;;13.10;7.60;;;;;;;4.39;76.86;98811.91;103277;1253;97966;-87
2023/01/16 09:59:25;;;;;;;13.50;8.10;;;;;;;4.65;76.27;98809.34;103284;1255;138046;-77
2023/01/16 10:01:57;;;;;;;13.30;8.00;;;;;;;4.69;76.14;98810.45;103224;1257;107504;-76
2023/01/16 10:04:29;;;;;;;13.20;7.40;;;;;;;4.74;75.95;98805.10;102320;1257;1002971;-80
2023/01/16 10:07:14;;;;;;;12.10;7.60;;;;;;;4.78;75.18;98806.36;103168;1257;108310;-86
2023/01/16 10:09:50;;;;;;;12.50;7.70;;;;;;;4.80;75.65;98794.40;102683;1259;139274;-81
2023/01/16 10:12:18;;;;;;;12.20;7.30;;;;;;;4.90;75.93;98794.30;102804;1259;110340;-83
2023/01/16 10:15:01;;;;;;;12.10;7.90;;;;;;;5.02;75.86;98791.48;102790;1259;106771;-83
2023/01/16 10:17:39;;;;;;;11.30;7.50;;;;;;;5.09;75.80;98794.37;102745;1259;138574;-86
2023/01/16 10:20:33;;;;;;;11.70;8.20;;;;;;;5.09;75.10;98795.56;102715;1263;106932;-85
2023/01/16 10:23:12;;;;;;;15.10;8.50;;;;;;;5.03;74.75;98793.52;102458;1267;138238;-85
2023/01/16 10:25:46;;;;;;;15.50;8.90;;;;;;;4.97;74.93;98786.80;102478;1267;112828;-84
2023/01/16 10:28:30;;;;;;;15.20;9.10;;;;;;;4.95;75.17;98778.30;101895;1267;1003183;-84
2023/01/16 10:30:59;;;;;;;10.90;7.90;;;;;;;4.93;74.63;98775.40;101658;1264;1003363;-83
2023/01/16 10:33:34;;;;;;;11.80;8.50;;;;;;;4.88;75.00;98763.70;102741;1264;139029;-79
2023/01/16 10:36:15;;;;;;;15.80;9.00;;;;;;;4.88;75.29;98754.75;102389;1268;97778;-86
2023/01/16 10:38:46;;;;;;;14.60;9.10;;;;;;;4.90;75.81;98750.55;102468;1264;111310;-86
2023/01/16 10:49:41;;;;;;;16.10;9.20;;;;;;;4.67;75.60;98743.88;102788;1264;97917;-88
2023/01/16 10:52:08;;;;;;;16.30;9.50;;;;;;;4.58;75.74;98739.69;102729;1260;138649;-86
2023/01/16 10:54:36;;;;;;;14.80;9.40;;;;;;;4.50;76.24;98734.95;102831;1262;107032;-86
2023/01/16 10:57:05;;;;;;;16.00;10.20;;;;;;;4.46;76.20;98727.86;102833;1260;98463;-85
2023/01/16 10:59:35;;;;;;;15.40;9.70;;;;;;;4.39;76.53;98719.13;102760;1259;138682;-84
2023/01/16 11:02:12;;;;;;;16.70;9.70;;;;;;;4.35;76.85;98713.42;103126;1257;97685;-75
2023/01/16 11:04:40;;;;;;;18.10;10.40;;;;;;;4.29;76.57;98708.44;103111;1254;1003457;-78
2023/01/16 11:07:20;;;;;;;15.60;9.70;;;;;;;4.23;76.79;98708.27;103271;1254;107724;-77
2023/01/16 11:09:48;;;;;;;16.10;10.70;;;;;;;4.14;76.82;98701.84;103285;1254;139689;-77
2023/01/16 11:20:49;;;;;;;20.20;9.90;;;;;;;3.93;77.73;98697.65;103045;1254;106993;-77
2023/01/16 11:23:20;;;;;;;16.20;9.90;;;;;;;3.90;77.65;98696.54;103168;1253;138124;-76
2023/01/16 11:25:50;;;;;;;17.70;9.60;;;;;;;3.88;77.92;98690.07;103448;1254;106105;-75
2023/01/16 11:28:23;;;;;;;16.60;9.40;;;;;;;3.88;78.06;98684.58;103110;1254;138185;-76
2023/01/16 11:30:56;;;;;;;17.30;10.10;;;;;;;3.86;77.66;98685.86;103237;1254;110365;-78
2023/01/16 11:33:27;;;;;;;15.00;9.20;;;;;;;3.82;77.72;98686.31;103207;1257;107356;-77
2023/01/16 11:35:58;;;;;;;18.80;9.30;;;;;;;3.80;77.99;98684.66;103278;1255;98204;-75
2023/01/16 11:38:28;;;;;;;16.60;9.80;;;;;;;3.78;77.88;98678.36;103250;1254;108174;-75
2023/01/16 11:40:59;;;;;;;15.00;9.10;;;;;;;3.76;78.06;98678.75;103176;1254;138296;-75
2023/01/16 11:46:34;;;;;;;14.80;9.30;;;;;;;3.69;78.01;98658.34;102906;1254;138476;-89
2023/01/16 11:49:05;;;;;;;18.80;9.60;;;;;;;3.67;77.79;98661.84;103078;1257;97780;-91
2023/01/16 11:51:37;;;;;;;16.40;9.70;;;;;;;3.64;78.00;98644.90;103062;1254;139418;-88
2023/01/16 11:54:11;;;;;;;15.70;9.90;;;;;;;3.65;78.30;98636.80;103257;1253;98146;-88
2023/01/16 11:56:56;;;;;;;19.80;10.20;;;;;;;3.66;78.44;98628.54;103184;1257;111500;-87
2023/01/16 11:59:48;;;;;;;15.80;9.60;;;;;;;3.68;78.57;98625.35;103169;1254;139456;-86
2023/01/16 12:02:28;;;;;;;16.50;9.70;;;;;;;3.68;78.52;98616.59;103331;1254;98386;-87
2023/01/16 12:08:05;;;;;;;18.50;10.30;;;;;;;3.62;78.38;98614.23;103305;1254;97888;-88
2023/01/16 12:10:43;;;;;;;15.10;9.90;;;;;;;3.61;78.76;98610.13;103171;1258;138140;-90
2023/01/16 12:16:10;;;;;;;14.90;10.30;;;;;;;3.62;78.85;98602.02;103137;1257;141065;-84
2023/01/16 12:18:47;;;;;;;16.40;10.40;;;;;;;3.64;78.92;98601.93;103091;1254;108559;-83
2023/01/16 12:21:32;;;;;;;22.40;11.10;;;;;;;3.67;79.13;98605.98;103314;1257;97791;-84
2023/01/16 12:24:33;;;;;;;15.60;10.40;;;;;;;3.70;79.10;98602.96;104448;1254;110856;-84
2023/01/16 12:27:13;;;;;;;16.60;11.50;;;;;;;3.72;79.10;98606.66;103032;1254;107932;-85
2023/01/16 12:29:50;;;;;;;21.00;11.50;;;;;;;3.72;78.96;98596.90;101550;1253;1003710;-86
2023/01/16 12:32:35;;;;;;;21.80;12.40;;;;;;;3.72;79.27;98599.64;103041;1256;107750;-86
2023/01/16 12:35:23;;;;;;;20.70;12.20;;;;;;;3.74;79.40;98603.70;103131;1254;138634;-74